createdAt,value
2019-02-24T00:01:03.848Z,-0.48
2019-02-24T00:03:34.269Z,-0.44
2019-02-24T00:06:04.774Z,-0.38
2019-02-24T00:08:35.268Z,-0.30
2019-02-24T00:11:05.954Z,-0.29
2019-02-24T00:13:36.446Z,-0.28
2019-02-24T00:16:06.832Z,-0.25
2019-02-24T00:18:37.560Z,-0.17
2019-02-24T00:21:07.993Z,-0.09
2019-02-24T00:23:38.405Z,-0.08
2019-02-24T00:26:08.935Z,-0.06
2019-02-24T00:28:39.290Z,-0.09
2019-02-24T00:31:09.667Z,-0.05
2019-02-24T00:33:40.025Z,-0.03
2019-02-24T00:36:10.426Z,-0.15
2019-02-24T00:38:40.762Z,-0.18
2019-02-24T00:41:11.153Z,-0.27
2019-02-24T00:43:41.503Z,-0.36
2019-02-24T00:46:11.965Z,-0.39
2019-02-24T00:48:42.308Z,-0.42
2019-02-24T00:51:12.702Z,-0.43
2019-02-24T00:53:43.113Z,-0.44
2019-02-24T00:56:13.509Z,-0.42
2019-02-24T00:58:43.850Z,-0.38
2019-02-24T01:01:14.222Z,-0.33
2019-02-24T01:03:44.629Z,-0.33
2019-02-24T01:06:15.454Z,-0.36
2019-02-24T01:08:45.795Z,-0.31
2019-02-24T01:11:16.327Z,-0.22
2019-02-24T01:13:46.667Z,-0.14
2019-02-24T01:16:17.056Z,-0.09
2019-02-24T01:18:47.390Z,-0.05
2019-02-24T01:21:17.781Z,-0.02
2019-02-24T01:23:48.125Z,-0.01
2019-02-24T01:26:18.510Z,-0.01
2019-02-24T01:28:48.852Z,-0.03
2019-02-24T01:31:19.234Z,-0.09
2019-02-24T01:33:49.641Z,-0.19
2019-02-24T01:36:20.035Z,-0.21
2019-02-24T01:38:50.438Z,-0.21
2019-02-24T01:41:20.901Z,-0.18
2019-02-24T01:43:51.242Z,-0.19
2019-02-24T01:46:21.627Z,-0.19
2019-02-24T01:48:51.973Z,-0.18
2019-02-24T01:51:22.369Z,-0.14
2019-02-24T01:53:52.714Z,-0.13
2019-02-24T01:56:23.169Z,-0.10
2019-02-24T01:58:53.573Z,-0.11
2019-02-24T02:01:24.038Z,-0.09
2019-02-24T02:03:54.378Z,-0.01
2019-02-24T02:06:24.762Z,0.02
2019-02-24T02:08:56.784Z,0.09
2019-02-24T02:11:27.409Z,0.10
2019-02-24T02:13:57.758Z,0.12
2019-02-24T02:16:29.211Z,0.17
2019-02-24T02:18:59.617Z,0.19
2019-02-24T02:21:30.325Z,0.17
2019-02-24T02:24:00.668Z,0.21
2019-02-24T02:26:31.124Z,0.17
2019-02-24T02:29:01.468Z,0.21
2019-02-24T02:31:31.859Z,0.17
2019-02-24T02:34:02.186Z,0.25
2019-02-24T02:36:32.626Z,0.24
2019-02-24T02:39:03.020Z,0.28
2019-02-24T02:41:35.086Z,0.26
2019-02-24T02:44:05.427Z,0.32
2019-02-24T02:46:35.946Z,0.30
2019-02-24T02:49:06.276Z,0.35
2019-02-24T02:51:36.729Z,0.36
2019-02-24T02:54:07.056Z,0.31
2019-02-24T02:56:37.504Z,0.35
2019-02-24T02:59:07.875Z,0.32
2019-02-24T03:01:38.254Z,0.31
2019-02-24T03:04:08.584Z,0.32
2019-02-24T03:06:46.542Z,0.35
2019-02-24T03:09:16.951Z,0.35
2019-02-24T03:11:47.937Z,0.37
2019-02-24T03:14:18.281Z,0.37
2019-02-24T03:16:48.650Z,0.39
2019-02-24T03:19:20.065Z,0.42
2019-02-24T03:21:50.455Z,0.42
2019-02-24T03:24:20.784Z,0.42
2019-02-24T03:26:51.190Z,0.41
2019-02-24T03:29:21.519Z,0.44
2019-02-24T03:31:51.975Z,0.43
2019-02-24T03:34:22.311Z,0.44
2019-02-24T03:36:52.751Z,0.45
2019-02-24T03:39:23.096Z,0.51
2019-02-24T03:41:53.482Z,0.51
2019-02-24T03:44:23.820Z,0.57
2019-02-24T03:46:54.197Z,0.58
2019-02-24T03:49:24.541Z,0.61
2019-02-24T03:51:54.937Z,0.60
2019-02-24T03:54:25.261Z,0.60
2019-02-24T03:56:55.636Z,0.61
2019-02-24T03:59:25.982Z,0.55
2019-02-24T04:01:56.362Z,0.52
2019-02-24T04:04:26.696Z,0.56
2019-02-24T04:06:57.076Z,0.57
2019-02-24T04:09:27.416Z,0.62
2019-02-24T04:11:57.992Z,0.65
2019-02-24T04:14:28.336Z,0.67
2019-02-24T04:16:59.399Z,0.69
2019-02-24T04:19:29.814Z,0.69
2019-02-24T04:22:00.197Z,0.74
2019-02-24T04:24:30.811Z,0.76
2019-02-24T04:27:01.202Z,0.80
2019-02-24T04:29:31.539Z,0.82
2019-02-24T04:32:03.581Z,0.79
2019-02-24T04:34:33.896Z,0.76
2019-02-24T04:37:04.356Z,0.69
2019-02-24T04:39:34.774Z,0.61
2019-02-24T04:42:05.155Z,0.59
2019-02-24T04:44:35.487Z,0.59
2019-02-24T04:47:05.871Z,0.56
2019-02-24T04:49:36.201Z,0.61
2019-02-24T04:52:06.580Z,0.63
2019-02-24T04:54:36.911Z,0.66
2019-02-24T04:57:08.362Z,0.66
2019-02-24T04:59:38.696Z,0.64
2019-02-24T05:02:09.089Z,0.74
2019-02-24T05:04:39.422Z,0.73
2019-02-24T05:07:09.802Z,0.77
2019-02-24T05:09:40.130Z,0.82
2019-02-24T05:12:10.873Z,0.84
2019-02-24T05:14:41.213Z,0.89
2019-02-24T05:17:11.590Z,0.87
2019-02-24T05:19:41.999Z,0.87
2019-02-24T05:22:12.650Z,0.90
2019-02-24T05:24:42.982Z,0.92
2019-02-24T05:27:13.447Z,0.92
2019-02-24T05:29:46.101Z,0.94
2019-02-24T05:32:15.871Z,0.94
2019-02-24T05:34:46.267Z,0.95
2019-02-24T05:37:16.655Z,0.82
2019-02-24T05:39:46.993Z,0.80
2019-02-24T05:42:17.398Z,0.84
2019-02-24T05:44:47.724Z,0.89
2019-02-24T05:47:18.106Z,0.90
2019-02-24T05:49:48.706Z,0.95
2019-02-24T05:52:20.937Z,1.01
2019-02-24T05:54:52.803Z,1.00
2019-02-24T05:57:24.715Z,0.93
2019-02-24T05:59:55.636Z,0.87
2019-02-24T06:02:26.112Z,0.85
2019-02-24T06:04:56.453Z,0.82
2019-02-24T06:07:26.824Z,0.80
2019-02-24T06:09:57.430Z,0.79
2019-02-24T06:12:27.819Z,0.69
2019-02-24T06:14:58.155Z,0.62
2019-02-24T06:17:28.533Z,0.62
2019-02-24T06:19:58.870Z,0.59
2019-02-24T06:22:29.247Z,0.64
2019-02-24T06:24:59.590Z,0.70
2019-02-24T06:27:29.980Z,0.74
2019-02-24T06:30:05.029Z,0.70
2019-02-24T06:32:32.468Z,0.78
2019-02-24T06:35:02.887Z,0.86
2019-02-24T06:37:33.268Z,0.94
2019-02-24T06:40:04.149Z,0.89
2019-02-24T06:42:34.520Z,0.89
2019-02-24T06:45:06.505Z,0.90
2019-02-24T06:47:36.889Z,0.94
2019-02-24T06:50:08.680Z,0.92
2019-02-24T06:52:39.073Z,0.97
2019-02-24T06:55:09.475Z,1.02
2019-02-24T06:57:39.872Z,0.94
2019-02-24T07:00:14.214Z,1.00
2019-02-24T07:02:43.094Z,1.04
2019-02-24T07:05:13.502Z,1.11
2019-02-24T07:07:43.946Z,1.13
2019-02-24T07:10:14.287Z,1.21
2019-02-24T07:12:44.914Z,1.20
2019-02-24T07:15:15.247Z,1.22
2019-02-24T07:17:45.704Z,1.27
2019-02-24T07:20:16.115Z,1.27
2019-02-24T07:22:46.524Z,1.31
2019-02-24T07:25:16.826Z,1.34
2019-02-24T07:27:47.287Z,1.46
2019-02-24T07:30:23.612Z,1.41
2019-02-24T07:32:49.774Z,1.37
2019-02-24T07:35:20.117Z,1.51
2019-02-24T07:37:50.500Z,1.50
2019-02-24T07:40:20.834Z,1.48
2019-02-24T07:42:51.286Z,1.59
2019-02-24T07:45:21.690Z,1.71
2019-02-24T07:47:52.066Z,1.81
2019-02-24T07:50:22.413Z,1.97
2019-02-24T07:52:52.798Z,2.02
2019-02-24T07:55:23.159Z,2.04
2019-02-24T07:57:53.585Z,2.02
2019-02-24T08:00:32.052Z,2.06
2019-02-24T08:02:56.205Z,2.11
2019-02-24T08:05:26.538Z,2.34
2019-02-24T08:07:57.898Z,2.57
2019-02-24T08:10:28.241Z,2.57
2019-02-24T08:12:59.125Z,2.66
2019-02-24T08:15:29.526Z,2.72
2019-02-24T08:17:59.916Z,2.76
2019-02-24T08:20:30.250Z,2.88
2019-02-24T08:23:00.901Z,2.95
2019-02-24T08:25:31.243Z,2.86
2019-02-24T08:28:01.632Z,2.92
2019-02-24T08:30:40.975Z,2.73
2019-02-24T08:33:04.118Z,2.71
2019-02-24T08:35:34.546Z,2.66
2019-02-24T08:38:04.993Z,2.53
2019-02-24T08:40:35.331Z,2.37
2019-02-24T08:43:05.722Z,2.23
2019-02-24T08:45:36.126Z,2.12
2019-02-24T08:48:06.517Z,2.05
2019-02-24T08:50:36.997Z,1.97
2019-02-24T08:53:07.369Z,1.99
2019-02-24T08:55:37.785Z,1.99
2019-02-24T08:58:08.162Z,2.05
2019-02-24T09:00:38.643Z,2.16
2019-02-24T09:03:09.654Z,2.28
2019-02-24T09:05:40.072Z,2.39
2019-02-24T09:08:10.561Z,2.46
2019-02-24T09:10:42.206Z,2.54
2019-02-24T09:13:13.019Z,2.61
2019-02-24T09:15:43.356Z,2.71
2019-02-24T09:18:13.802Z,2.75
2019-02-24T09:20:44.244Z,2.86
2019-02-24T09:23:15.774Z,2.92
2019-02-24T09:25:46.187Z,3.08
2019-02-24T09:28:16.589Z,3.18
2019-02-24T09:30:47.001Z,3.27
2019-02-24T09:33:17.625Z,3.38
2019-02-24T09:35:47.967Z,3.46
2019-02-24T09:38:18.415Z,3.57
2019-02-24T09:40:48.825Z,3.62
2019-02-24T09:43:19.200Z,3.63
2019-02-24T09:45:49.609Z,3.75
2019-02-24T09:48:19.994Z,3.78
2019-02-24T09:50:50.332Z,3.92
2019-02-24T09:53:20.709Z,4.08
2019-02-24T09:55:52.622Z,4.22
2019-02-24T09:58:23.007Z,4.35
2019-02-24T10:00:53.417Z,4.37
2019-02-24T10:03:23.858Z,4.41
2019-02-24T10:05:54.200Z,4.40
2019-02-24T10:08:24.597Z,4.33
2019-02-24T10:10:54.935Z,4.24
2019-02-24T10:13:25.563Z,4.18
2019-02-24T10:15:57.448Z,4.10
2019-02-24T10:18:27.843Z,4.05
2019-02-24T10:20:58.194Z,4.04
2019-02-24T10:23:28.596Z,4.01
2019-02-24T10:25:58.933Z,4.02
2019-02-24T10:28:29.590Z,4.01
2019-02-24T10:31:01.708Z,4.01
2019-02-24T10:33:32.180Z,4.01
2019-02-24T10:36:02.483Z,4.09
2019-02-24T10:38:32.940Z,4.24
2019-02-24T10:41:03.363Z,4.47
2019-02-24T10:43:33.749Z,4.74
2019-02-24T10:46:04.113Z,4.86
2019-02-24T10:48:34.572Z,4.96
2019-02-24T10:51:04.916Z,5.05
2019-02-24T10:53:36.263Z,5.43
2019-02-24T10:56:06.596Z,6.13
2019-02-24T10:58:37.042Z,6.85
2019-02-24T11:01:07.651Z,7.63
2019-02-24T11:03:38.183Z,7.94
2019-02-24T11:06:08.539Z,7.69
2019-02-24T11:08:38.986Z,7.71
2019-02-24T11:11:09.337Z,7.91
2019-02-24T11:13:39.766Z,8.39
2019-02-24T11:16:10.163Z,8.47
2019-02-24T11:18:40.542Z,8.54
2019-02-24T11:21:11.046Z,8.40
2019-02-24T11:23:41.820Z,8.16
2019-02-24T11:26:12.166Z,7.91
2019-02-24T11:28:42.695Z,7.70
2019-02-24T11:31:13.120Z,7.59
2019-02-24T11:33:43.590Z,7.63
2019-02-24T11:36:13.903Z,7.98
2019-02-24T11:38:44.364Z,8.35
2019-02-24T11:41:15.480Z,8.40
2019-02-24T11:43:45.950Z,8.43
2019-02-24T11:46:17.356Z,8.46
2019-02-24T11:48:47.814Z,8.51
2019-02-24T11:51:18.146Z,8.42
2019-02-24T11:53:48.605Z,8.57
2019-02-24T11:56:19.752Z,8.92
2019-02-24T11:58:50.202Z,9.24
2019-02-24T12:01:20.535Z,9.61
2019-02-24T12:03:50.986Z,9.68
2019-02-24T12:06:21.325Z,9.44
2019-02-24T12:08:51.760Z,9.42
2019-02-24T12:11:22.158Z,9.20
2019-02-24T12:13:53.070Z,9.45
2019-02-24T12:16:23.418Z,9.27
2019-02-24T12:18:53.878Z,9.40
2019-02-24T12:21:24.272Z,9.46
2019-02-24T12:23:54.778Z,9.18
2019-02-24T12:26:25.113Z,9.43
2019-02-24T12:28:55.510Z,9.49
2019-02-24T12:31:25.849Z,9.54
2019-02-24T12:33:56.883Z,9.76
2019-02-24T12:36:27.332Z,9.97
2019-02-24T12:38:57.855Z,9.99
2019-02-24T12:41:28.267Z,10.05
2019-02-24T12:43:58.719Z,10.12
2019-02-24T12:46:29.062Z,10.01
2019-02-24T12:48:59.586Z,9.76
2019-02-24T12:51:29.921Z,9.46
2019-02-24T12:54:00.372Z,9.10
2019-02-24T12:56:30.710Z,8.93
2019-02-24T12:59:01.088Z,8.98
2019-02-24T13:01:31.429Z,9.12
2019-02-24T13:04:02.945Z,9.29
2019-02-24T13:06:33.355Z,9.74
2019-02-24T13:09:04.668Z,10.02
2019-02-24T13:11:35.388Z,10.12
2019-02-24T13:14:05.909Z,10.22
2019-02-24T13:16:36.261Z,10.71
2019-02-24T13:19:06.655Z,10.64
2019-02-24T13:21:37.065Z,10.32
2019-02-24T13:24:07.460Z,10.14
2019-02-24T13:26:37.870Z,10.03
2019-02-24T13:29:08.259Z,9.95
2019-02-24T13:31:38.738Z,10.05
2019-02-24T13:34:09.256Z,10.18
2019-02-24T13:36:39.599Z,10.14
2019-02-24T13:39:09.986Z,10.17
2019-02-24T13:41:40.399Z,10.41
2019-02-24T13:44:10.863Z,10.58
2019-02-24T13:46:41.473Z,11.12
2019-02-24T13:49:11.933Z,11.09
2019-02-24T13:51:42.329Z,11.31
2019-02-24T13:54:12.776Z,11.10
2019-02-24T13:56:43.112Z,10.74
2019-02-24T13:59:13.601Z,10.49
2019-02-24T14:01:44.203Z,10.21
2019-02-24T14:04:14.658Z,10.27
2019-02-24T14:06:44.996Z,10.32
2019-02-24T14:09:15.446Z,10.20
2019-02-24T14:11:45.787Z,10.11
2019-02-24T14:14:16.490Z,10.11
2019-02-24T14:16:46.832Z,10.12
2019-02-24T14:19:17.225Z,10.09
2019-02-24T14:21:47.567Z,10.10
2019-02-24T14:24:19.977Z,10.04
2019-02-24T14:26:50.495Z,10.07
2019-02-24T14:29:21.154Z,10.09
2019-02-24T14:31:51.571Z,10.12
2019-02-24T14:34:21.951Z,10.22
2019-02-24T14:36:54.738Z,10.25
2019-02-24T14:39:25.459Z,10.95
2019-02-24T14:41:55.844Z,11.32
2019-02-24T14:44:26.223Z,10.60
2019-02-24T14:46:57.222Z,10.32
2019-02-24T14:49:27.794Z,10.26
2019-02-24T14:51:58.199Z,10.25
2019-02-24T14:54:28.736Z,10.16
2019-02-24T14:56:59.353Z,10.09
2019-02-24T14:59:29.801Z,10.05
2019-02-24T15:02:00.134Z,10.37
2019-02-24T15:04:30.515Z,10.50
2019-02-24T15:07:00.904Z,10.03
2019-02-24T15:09:31.302Z,9.79
2019-02-24T15:12:01.648Z,9.63
2019-02-24T15:14:32.231Z,9.53
2019-02-24T15:17:02.636Z,9.43
2019-02-24T15:19:33.017Z,9.34
2019-02-24T15:22:03.462Z,9.29
2019-02-24T15:24:33.886Z,9.23
2019-02-24T15:27:04.294Z,9.20
2019-02-24T15:29:35.807Z,9.08
2019-02-24T15:32:06.248Z,8.97
2019-02-24T15:34:36.820Z,8.91
2019-02-24T15:37:07.509Z,8.86
2019-02-24T15:39:37.884Z,8.83
2019-02-24T15:42:08.203Z,8.74
2019-02-24T15:44:38.651Z,8.63
2019-02-24T15:47:09.055Z,8.54
2019-02-24T15:49:39.435Z,8.36
2019-02-24T15:52:10.263Z,8.36
2019-02-24T15:54:40.736Z,8.38
2019-02-24T15:57:11.342Z,8.27
2019-02-24T15:59:41.746Z,8.21
2019-02-24T16:02:12.081Z,8.16
2019-02-24T16:04:42.463Z,7.97
2019-02-24T16:07:12.802Z,7.87
2019-02-24T16:09:43.177Z,7.73
2019-02-24T16:12:13.602Z,7.55
2019-02-24T16:14:44.061Z,7.34
2019-02-24T16:17:14.487Z,7.19
2019-02-24T16:19:45.130Z,7.09
2019-02-24T16:22:15.470Z,6.90
2019-02-24T16:24:45.879Z,6.66
2019-02-24T16:27:16.273Z,6.40
2019-02-24T16:29:46.722Z,6.13
2019-02-24T16:32:17.140Z,5.95
2019-02-24T16:34:47.594Z,5.77
2019-02-24T16:37:18.030Z,5.57
2019-02-24T16:39:48.481Z,5.40
2019-02-24T16:42:18.846Z,5.23
2019-02-24T16:44:50.409Z,5.13
2019-02-24T16:47:20.771Z,5.08
2019-02-24T16:49:51.222Z,4.98
2019-02-24T16:52:21.579Z,4.88
2019-02-24T16:54:52.814Z,4.87
2019-02-24T16:57:23.373Z,4.76
2019-02-24T16:59:53.820Z,4.60
2019-02-24T17:02:24.164Z,4.50
2019-02-24T17:04:54.868Z,4.39
2019-02-24T17:07:25.326Z,4.24
2019-02-24T17:09:56.745Z,4.23
2019-02-24T17:12:27.792Z,4.21
2019-02-24T17:14:58.320Z,4.12
2019-02-24T17:17:28.792Z,4.22
2019-02-24T17:19:59.166Z,4.17
2019-02-24T17:22:29.506Z,4.28
2019-02-24T17:25:00.355Z,4.11
2019-02-24T17:27:30.750Z,3.98
2019-02-24T17:30:01.132Z,3.94
2019-02-24T17:32:31.545Z,3.84
2019-02-24T17:35:02.009Z,3.76
2019-02-24T17:37:32.424Z,3.69
2019-02-24T17:40:02.880Z,3.66
2019-02-24T17:42:33.327Z,3.60
2019-02-24T17:45:03.981Z,3.55
2019-02-24T17:47:35.407Z,3.49
2019-02-24T17:50:08.745Z,3.45
2019-02-24T17:52:39.246Z,3.42
2019-02-24T17:55:13.307Z,3.38
2019-02-24T17:57:44.660Z,3.32
2019-02-24T18:00:23.586Z,3.29
2019-02-24T18:02:54.056Z,3.27
2019-02-24T18:05:24.444Z,3.35
2019-02-24T18:07:54.866Z,3.37
2019-02-24T18:10:25.332Z,3.26
2019-02-24T18:12:55.759Z,3.26
2019-02-24T18:15:26.244Z,3.12
2019-02-24T18:17:56.593Z,3.01
2019-02-24T18:20:27.038Z,2.86
2019-02-24T18:22:57.455Z,2.72
2019-02-24T18:25:27.834Z,2.62
2019-02-24T18:27:58.189Z,2.54
2019-02-24T18:30:29.798Z,2.53
2019-02-24T18:33:00.241Z,2.45
2019-02-24T18:35:31.695Z,2.48
2019-02-24T18:38:02.126Z,2.47
2019-02-24T18:40:33.578Z,2.44
2019-02-24T18:43:03.942Z,2.35
2019-02-24T18:45:34.401Z,2.25
2019-02-24T18:48:04.726Z,2.19
2019-02-24T18:50:35.205Z,2.13
2019-02-24T18:53:06.499Z,2.03
2019-02-24T18:55:37.060Z,1.97
2019-02-24T18:58:07.534Z,1.87
2019-02-24T19:00:37.987Z,1.83
2019-02-24T19:03:08.393Z,1.85
2019-02-24T19:05:38.860Z,1.96
2019-02-24T19:08:09.287Z,2.00
2019-02-24T19:10:39.897Z,2.13
2019-02-24T19:13:11.296Z,2.21
2019-02-24T19:15:41.764Z,2.33
2019-02-24T19:18:12.114Z,2.39
2019-02-24T19:20:42.506Z,2.46
2019-02-24T19:23:12.914Z,2.49
2019-02-24T19:25:43.372Z,2.55
2019-02-24T19:28:13.801Z,2.51
2019-02-24T19:30:44.188Z,2.47
2019-02-24T19:33:14.544Z,2.49
2019-02-24T19:35:45.002Z,2.45
2019-02-24T19:38:15.335Z,2.52
2019-02-24T19:40:45.790Z,2.51
2019-02-24T19:43:16.142Z,2.46
2019-02-24T19:45:46.514Z,2.43
2019-02-24T19:48:17.016Z,2.32
2019-02-24T19:50:47.469Z,2.21
2019-02-24T19:53:18.980Z,2.14
2019-02-24T19:55:49.367Z,2.08
2019-02-24T19:58:19.846Z,2.00
2019-02-24T20:00:50.290Z,1.98
2019-02-24T20:03:20.695Z,1.88
2019-02-24T20:05:51.077Z,1.79
2019-02-24T20:08:21.639Z,1.70
2019-02-24T20:10:52.090Z,1.82
2019-02-24T20:13:22.446Z,1.83
2019-02-24T20:15:52.999Z,1.78
2019-02-24T20:18:23.505Z,1.75
2019-02-24T20:20:53.909Z,1.71
2019-02-24T20:23:24.279Z,1.75
2019-02-24T20:25:55.079Z,1.82
2019-02-24T20:28:27.257Z,1.83
2019-02-24T20:31:06.965Z,1.87
2019-02-24T20:33:38.524Z,1.89
2019-02-24T20:36:33.476Z,1.89
2019-02-24T20:39:15.362Z,1.86
2019-02-24T20:42:29.794Z,2.04
2019-02-24T20:45:18.969Z,2.11
2019-02-24T20:47:51.580Z,2.17
2019-02-24T20:50:29.107Z,2.23
2019-02-24T20:53:01.693Z,2.23
2019-02-24T20:55:33.930Z,2.26
2019-02-24T20:58:06.001Z,2.22
2019-02-24T21:00:49.826Z,2.21
2019-02-24T21:03:23.695Z,2.16
2019-02-24T21:05:56.817Z,2.13
2019-02-24T21:08:27.257Z,2.08
2019-02-24T21:10:57.706Z,2.03
2019-02-24T21:13:28.219Z,1.97
2019-02-24T21:16:00.005Z,1.97
2019-02-24T21:18:32.694Z,1.97
2019-02-24T21:21:04.939Z,1.98
2019-02-24T21:23:37.253Z,1.99
2019-02-24T21:26:08.823Z,1.95
2019-02-24T21:28:40.712Z,1.92
2019-02-24T21:31:13.810Z,1.91
2019-02-24T21:33:44.821Z,1.85
2019-02-24T21:36:16.757Z,1.74
2019-02-24T21:38:49.176Z,1.68
2019-02-24T21:41:20.120Z,1.61
2019-02-24T21:43:50.592Z,1.60
2019-02-24T21:46:20.952Z,1.54
2019-02-24T21:48:51.410Z,1.52
2019-02-24T21:51:21.777Z,1.54
2019-02-24T21:53:52.248Z,1.50
2019-02-24T21:56:22.670Z,1.48
2019-02-24T21:58:53.081Z,1.44
2019-02-24T22:01:23.425Z,1.41
2019-02-24T22:03:54.162Z,1.38
2019-02-24T22:06:24.659Z,1.37
2019-02-24T22:08:55.115Z,1.39
2019-02-24T22:11:25.452Z,1.36
2019-02-24T22:13:55.890Z,1.37
2019-02-24T22:16:26.419Z,1.34
2019-02-24T22:18:56.798Z,1.34
2019-02-24T22:21:28.003Z,1.28
2019-02-24T22:23:58.871Z,1.30
2019-02-24T22:26:30.396Z,1.26
2019-02-24T22:29:01.212Z,1.24
2019-02-24T22:31:31.750Z,1.20
2019-02-24T22:34:02.208Z,1.18
2019-02-24T22:36:32.565Z,1.12
2019-02-24T22:39:03.251Z,1.10
2019-02-24T22:41:35.192Z,1.03
2019-02-24T22:44:05.578Z,0.97
2019-02-24T22:46:36.100Z,0.94
2019-02-24T22:49:06.548Z,0.96
2019-02-24T22:51:36.925Z,0.92
2019-02-24T22:54:07.383Z,0.93
2019-02-24T22:56:37.740Z,0.95
2019-02-24T22:59:08.135Z,0.94
2019-02-24T23:01:38.568Z,0.95
2019-02-24T23:04:10.256Z,0.97
2019-02-24T23:06:40.685Z,1.06
2019-02-24T23:09:11.993Z,1.05
2019-02-24T23:11:42.704Z,1.09
2019-02-24T23:14:13.173Z,1.11
2019-02-24T23:16:44.527Z,1.13
2019-02-24T23:19:14.899Z,1.14
2019-02-24T23:21:45.249Z,1.19
2019-02-24T23:24:15.643Z,1.18
2019-02-24T23:26:46.076Z,1.17
2019-02-24T23:29:16.821Z,1.17
2019-02-24T23:31:48.034Z,1.20
2019-02-24T23:34:20.060Z,1.21
2019-02-24T23:36:50.425Z,1.26
2019-02-24T23:39:20.879Z,1.20
2019-02-24T23:41:51.334Z,1.15
2019-02-24T23:44:21.720Z,1.15
2019-02-24T23:46:52.215Z,1.14
2019-02-24T23:49:22.661Z,1.11
2019-02-24T23:51:52.992Z,1.03
2019-02-24T23:54:23.522Z,1.00
2019-02-24T23:56:55.057Z,0.98
2019-02-24T23:59:25.520Z,0.98
